sensor_id;sensor_type;location;lat;lon;timestamp;P1;durP1;ratioP1;P2;durP2;ratioP2
76727;SDS011;65652;53.132;18.026;2023-06-14T00:01:58;10.30;;;4.60;;
76727;SDS011;65652;53.132;18.026;2023-06-14T00:04:25;8.30;;;4.10;;
76727;SDS011;65652;53.132;18.026;2023-06-14T00:06:52;9.80;;;4.30;;
76727;SDS011;65652;53.132;18.026;2023-06-14T00:09:19;8.50;;;3.90;;
76727;SDS011;65652;53.132;18.026;2023-06-14T00:11:46;9.30;;;4.30;;
76727;SDS011;65652;53.132;18.026;2023-06-14T00:14:13;10.40;;;5.00;;
76727;SDS011;65652;53.132;18.026;2023-06-14T00:16:40;11.00;;;4.80;;
76727;SDS011;65652;53.132;18.026;2023-06-14T00:19:09;8.80;;;4.40;;
76727;SDS011;65652;53.132;18.026;2023-06-14T00:21:37;10.00;;;4.50;;
76727;SDS011;65652;53.132;18.026;2023-06-14T00:24:04;8.30;;;4.20;;
76727;SDS011;65652;53.132;18.026;2023-06-14T00:26:31;10.50;;;4.60;;
76727;SDS011;65652;53.132;18.026;2023-06-14T00:28:58;8.00;;;4.30;;
76727;SDS011;65652;53.132;18.026;2023-06-14T00:31:27;9.70;;;4.50;;
76727;SDS011;65652;53.132;18.026;2023-06-14T00:33:54;7.90;;;4.10;;
76727;SDS011;65652;53.132;18.026;2023-06-14T00:36:21;7.70;;;3.80;;
76727;SDS011;65652;53.132;18.026;2023-06-14T00:38:48;8.20;;;4.10;;
76727;SDS011;65652;53.132;18.026;2023-06-14T00:41:15;9.90;;;4.10;;
76727;SDS011;65652;53.132;18.026;2023-06-14T00:43:42;8.00;;;3.90;;
76727;SDS011;65652;53.132;18.026;2023-06-14T00:46:09;10.00;;;3.70;;
76727;SDS011;65652;53.132;18.026;2023-06-14T00:48:37;6.30;;;3.40;;
76727;SDS011;65652;53.132;18.026;2023-06-14T00:51:06;6.60;;;3.70;;
76727;SDS011;65652;53.132;18.026;2023-06-14T00:53:33;9.10;;;4.30;;
76727;SDS011;65652;53.132;18.026;2023-06-14T00:56:02;7.90;;;4.40;;
76727;SDS011;65652;53.132;18.026;2023-06-14T00:58:29;7.70;;;4.40;;
76727;SDS011;65652;53.132;18.026;2023-06-14T01:00:57;7.20;;;3.80;;
76727;SDS011;65652;53.132;18.026;2023-06-14T01:03:24;7.70;;;4.10;;
76727;SDS011;65652;53.132;18.026;2023-06-14T01:05:58;7.20;;;3.70;;
76727;SDS011;65652;53.132;18.026;2023-06-14T01:11:13;11.30;;;5.50;;
76727;SDS011;65652;53.132;18.026;2023-06-14T01:13:49;10.50;;;5.00;;
76727;SDS011;65652;53.132;18.026;2023-06-14T01:16:18;9.50;;;5.30;;
76727;SDS011;65652;53.132;18.026;2023-06-14T01:18:46;10.20;;;4.80;;
76727;SDS011;65652;53.132;18.026;2023-06-14T01:21:25;9.60;;;5.00;;
76727;SDS011;65652;53.132;18.026;2023-06-14T01:23:52;9.50;;;5.00;;
76727;SDS011;65652;53.132;18.026;2023-06-14T01:26:20;8.00;;;4.50;;
76727;SDS011;65652;53.132;18.026;2023-06-14T01:28:48;9.90;;;5.00;;
76727;SDS011;65652;53.132;18.026;2023-06-14T01:31:19;9.50;;;5.30;;
76727;SDS011;65652;53.132;18.026;2023-06-14T01:33:51;11.30;;;4.70;;
76727;SDS011;65652;53.132;18.026;2023-06-14T01:36:19;10.00;;;5.50;;
76727;SDS011;65652;53.132;18.026;2023-06-14T01:38:46;10.50;;;5.00;;
76727;SDS011;65652;53.132;18.026;2023-06-14T01:41:16;9.70;;;5.10;;
76727;SDS011;65652;53.132;18.026;2023-06-14T01:43:45;7.80;;;4.80;;
76727;SDS011;65652;53.132;18.026;2023-06-14T01:46:14;11.90;;;5.10;;
76727;SDS011;65652;53.132;18.026;2023-06-14T01:51:09;9.90;;;4.80;;
76727;SDS011;65652;53.132;18.026;2023-06-14T01:53:36;11.10;;;5.30;;
76727;SDS011;65652;53.132;18.026;2023-06-14T01:56:03;9.90;;;4.90;;
76727;SDS011;65652;53.132;18.026;2023-06-14T01:58:31;9.60;;;4.40;;
76727;SDS011;65652;53.132;18.026;2023-06-14T02:00:59;10.00;;;5.50;;
76727;SDS011;65652;53.132;18.026;2023-06-14T02:03:28;10.40;;;4.60;;
76727;SDS011;65652;53.132;18.026;2023-06-14T02:05:55;10.50;;;4.80;;
76727;SDS011;65652;53.132;18.026;2023-06-14T02:08:22;8.50;;;4.60;;
76727;SDS011;65652;53.132;18.026;2023-06-14T02:10:49;8.40;;;5.00;;
76727;SDS011;65652;53.132;18.026;2023-06-14T02:13:17;12.10;;;5.00;;
76727;SDS011;65652;53.132;18.026;2023-06-14T02:15:43;10.20;;;4.40;;
76727;SDS011;65652;53.132;18.026;2023-06-14T02:18:11;8.20;;;4.50;;
76727;SDS011;65652;53.132;18.026;2023-06-14T02:20:38;8.60;;;4.20;;
76727;SDS011;65652;53.132;18.026;2023-06-14T02:23:05;9.70;;;4.30;;
76727;SDS011;65652;53.132;18.026;2023-06-14T02:25:34;9.70;;;4.90;;
76727;SDS011;65652;53.132;18.026;2023-06-14T02:28:01;11.70;;;4.50;;
76727;SDS011;65652;53.132;18.026;2023-06-14T02:30:28;10.90;;;4.90;;
76727;SDS011;65652;53.132;18.026;2023-06-14T02:32:56;9.50;;;4.70;;
76727;SDS011;65652;53.132;18.026;2023-06-14T02:35:23;9.70;;;4.90;;
76727;SDS011;65652;53.132;18.026;2023-06-14T02:37:53;10.20;;;4.30;;
76727;SDS011;65652;53.132;18.026;2023-06-14T02:40:22;10.80;;;4.60;;
76727;SDS011;65652;53.132;18.026;2023-06-14T02:42:50;7.90;;;4.30;;
76727;SDS011;65652;53.132;18.026;2023-06-14T02:45:17;8.80;;;4.20;;
76727;SDS011;65652;53.132;18.026;2023-06-14T02:47:44;9.00;;;4.30;;
76727;SDS011;65652;53.132;18.026;2023-06-14T02:50:12;9.80;;;4.50;;
76727;SDS011;65652;53.132;18.026;2023-06-14T02:52:40;9.10;;;4.80;;
76727;SDS011;65652;53.132;18.026;2023-06-14T02:55:09;10.10;;;4.40;;
76727;SDS011;65652;53.132;18.026;2023-06-14T03:00:04;11.20;;;4.80;;
76727;SDS011;65652;53.132;18.026;2023-06-14T03:02:31;10.40;;;5.00;;
76727;SDS011;65652;53.132;18.026;2023-06-14T03:04:58;9.20;;;5.30;;
76727;SDS011;65652;53.132;18.026;2023-06-14T03:07:28;10.70;;;4.90;;
76727;SDS011;65652;53.132;18.026;2023-06-14T03:09:57;9.80;;;5.20;;
76727;SDS011;65652;53.132;18.026;2023-06-14T03:12:24;9.90;;;5.10;;
76727;SDS011;65652;53.132;18.026;2023-06-14T03:14:51;8.60;;;4.70;;
76727;SDS011;65652;53.132;18.026;2023-06-14T03:17:20;9.00;;;4.70;;
76727;SDS011;65652;53.132;18.026;2023-06-14T03:19:47;11.30;;;4.80;;
76727;SDS011;65652;53.132;18.026;2023-06-14T03:22:14;9.10;;;4.30;;
76727;SDS011;65652;53.132;18.026;2023-06-14T03:24:40;10.10;;;4.90;;
76727;SDS011;65652;53.132;18.026;2023-06-14T03:27:10;9.20;;;5.00;;
76727;SDS011;65652;53.132;18.026;2023-06-14T03:29:41;8.90;;;5.00;;
76727;SDS011;65652;53.132;18.026;2023-06-14T03:32:08;8.10;;;4.80;;
76727;SDS011;65652;53.132;18.026;2023-06-14T03:34:37;11.10;;;5.30;;
76727;SDS011;65652;53.132;18.026;2023-06-14T03:37:09;9.30;;;4.90;;
76727;SDS011;65652;53.132;18.026;2023-06-14T03:39:36;8.60;;;4.80;;
76727;SDS011;65652;53.132;18.026;2023-06-14T03:42:03;9.90;;;4.90;;
76727;SDS011;65652;53.132;18.026;2023-06-14T03:46:57;10.10;;;4.40;;
76727;SDS011;65652;53.132;18.026;2023-06-14T03:49:25;10.20;;;4.90;;
76727;SDS011;65652;53.132;18.026;2023-06-14T03:51:52;9.40;;;4.70;;
76727;SDS011;65652;53.132;18.026;2023-06-14T03:54:22;9.30;;;4.90;;
76727;SDS011;65652;53.132;18.026;2023-06-14T03:56:49;10.20;;;4.90;;
76727;SDS011;65652;53.132;18.026;2023-06-14T03:59:16;8.20;;;4.60;;
76727;SDS011;65652;53.132;18.026;2023-06-14T04:01:43;12.00;;;4.90;;
76727;SDS011;65652;53.132;18.026;2023-06-14T04:04:11;9.60;;;4.70;;
76727;SDS011;65652;53.132;18.026;2023-06-14T04:06:38;9.80;;;5.30;;
76727;SDS011;65652;53.132;18.026;2023-06-14T04:09:08;11.10;;;5.40;;
76727;SDS011;65652;53.132;18.026;2023-06-14T04:11:35;9.30;;;5.00;;
76727;SDS011;65652;53.132;18.026;2023-06-14T04:14:03;8.60;;;4.80;;
76727;SDS011;65652;53.132;18.026;2023-06-14T04:16:30;9.10;;;5.20;;
76727;SDS011;65652;53.132;18.026;2023-06-14T04:18:57;8.60;;;4.60;;
76727;SDS011;65652;53.132;18.026;2023-06-14T04:21:24;12.10;;;4.70;;
76727;SDS011;65652;53.132;18.026;2023-06-14T04:23:54;9.80;;;5.00;;
76727;SDS011;65652;53.132;18.026;2023-06-14T04:26:24;9.50;;;5.20;;
76727;SDS011;65652;53.132;18.026;2023-06-14T04:28:56;10.90;;;4.80;;
76727;SDS011;65652;53.132;18.026;2023-06-14T04:31:28;10.80;;;5.10;;
76727;SDS011;65652;53.132;18.026;2023-06-14T04:33:56;8.80;;;4.40;;
76727;SDS011;65652;53.132;18.026;2023-06-14T04:36:23;9.60;;;5.30;;
76727;SDS011;65652;53.132;18.026;2023-06-14T04:38:51;9.50;;;5.00;;
76727;SDS011;65652;53.132;18.026;2023-06-14T04:41:21;9.20;;;4.80;;
76727;SDS011;65652;53.132;18.026;2023-06-14T04:43:49;10.80;;;4.90;;
76727;SDS011;65652;53.132;18.026;2023-06-14T04:46:17;10.20;;;5.00;;
76727;SDS011;65652;53.132;18.026;2023-06-14T04:48:44;11.70;;;5.80;;
76727;SDS011;65652;53.132;18.026;2023-06-14T04:51:12;9.10;;;4.50;;
76727;SDS011;65652;53.132;18.026;2023-06-14T04:53:39;10.70;;;4.80;;
76727;SDS011;65652;53.132;18.026;2023-06-14T04:56:06;8.20;;;4.30;;
76727;SDS011;65652;53.132;18.026;2023-06-14T04:58:34;10.40;;;4.80;;
76727;SDS011;65652;53.132;18.026;2023-06-14T05:01:00;9.50;;;5.00;;
76727;SDS011;65652;53.132;18.026;2023-06-14T05:03:29;10.60;;;5.00;;
76727;SDS011;65652;53.132;18.026;2023-06-14T05:05:57;10.50;;;5.50;;
76727;SDS011;65652;53.132;18.026;2023-06-14T05:08:24;10.20;;;5.40;;
76727;SDS011;65652;53.132;18.026;2023-06-14T05:10:51;10.40;;;4.90;;
76727;SDS011;65652;53.132;18.026;2023-06-14T05:13:18;8.10;;;5.00;;
76727;SDS011;65652;53.132;18.026;2023-06-14T05:15:46;11.10;;;5.00;;
76727;SDS011;65652;53.132;18.026;2023-06-14T05:18:13;13.80;;;5.10;;
76727;SDS011;65652;53.132;18.026;2023-06-14T05:20:42;11.40;;;5.20;;
76727;SDS011;65652;53.132;18.026;2023-06-14T05:23:09;8.80;;;4.70;;
76727;SDS011;65652;53.132;18.026;2023-06-14T05:25:42;8.70;;;4.90;;
76727;SDS011;65652;53.132;18.026;2023-06-14T05:28:10;11.30;;;5.20;;
76727;SDS011;65652;53.132;18.026;2023-06-14T05:30:38;10.20;;;4.80;;
76727;SDS011;65652;53.132;18.026;2023-06-14T05:33:05;10.40;;;5.20;;
76727;SDS011;65652;53.132;18.026;2023-06-14T05:35:32;9.40;;;4.90;;
76727;SDS011;65652;53.132;18.026;2023-06-14T05:37:59;10.70;;;4.80;;
76727;SDS011;65652;53.132;18.026;2023-06-14T05:40:26;7.70;;;4.60;;
76727;SDS011;65652;53.132;18.026;2023-06-14T05:42:52;9.40;;;4.10;;
76727;SDS011;65652;53.132;18.026;2023-06-14T05:45:19;9.70;;;4.60;;
76727;SDS011;65652;53.132;18.026;2023-06-14T05:47:46;10.20;;;4.20;;
76727;SDS011;65652;53.132;18.026;2023-06-14T05:50:14;11.70;;;4.80;;
76727;SDS011;65652;53.132;18.026;2023-06-14T05:52:40;14.30;;;5.10;;
76727;SDS011;65652;53.132;18.026;2023-06-14T05:55:07;11.40;;;5.10;;
76727;SDS011;65652;53.132;18.026;2023-06-14T05:57:35;12.10;;;5.00;;
76727;SDS011;65652;53.132;18.026;2023-06-14T06:00:02;11.20;;;4.80;;
76727;SDS011;65652;53.132;18.026;2023-06-14T06:02:38;8.50;;;4.60;;
76727;SDS011;65652;53.132;18.026;2023-06-14T06:05:06;9.90;;;4.50;;
76727;SDS011;65652;53.132;18.026;2023-06-14T06:07:33;11.30;;;4.50;;
76727;SDS011;65652;53.132;18.026;2023-06-14T06:10:00;8.70;;;4.50;;
76727;SDS011;65652;53.132;18.026;2023-06-14T06:12:26;7.70;;;4.20;;
76727;SDS011;65652;53.132;18.026;2023-06-14T06:14:53;8.70;;;4.50;;
76727;SDS011;65652;53.132;18.026;2023-06-14T06:17:20;7.60;;;3.60;;
76727;SDS011;65652;53.132;18.026;2023-06-14T06:19:47;9.20;;;4.20;;
76727;SDS011;65652;53.132;18.026;2023-06-14T06:22:14;8.40;;;4.20;;
76727;SDS011;65652;53.132;18.026;2023-06-14T06:24:40;9.20;;;4.10;;
76727;SDS011;65652;53.132;18.026;2023-06-14T06:27:07;12.80;;;5.30;;
76727;SDS011;65652;53.132;18.026;2023-06-14T06:29:35;12.70;;;4.40;;
76727;SDS011;65652;53.132;18.026;2023-06-14T06:32:02;10.90;;;4.30;;
76727;SDS011;65652;53.132;18.026;2023-06-14T06:34:29;9.40;;;3.60;;
76727;SDS011;65652;53.132;18.026;2023-06-14T06:36:56;10.80;;;4.00;;
76727;SDS011;65652;53.132;18.026;2023-06-14T06:39:23;11.20;;;4.20;;
76727;SDS011;65652;53.132;18.026;2023-06-14T06:41:49;7.90;;;3.70;;
76727;SDS011;65652;53.132;18.026;2023-06-14T06:44:25;9.40;;;3.90;;
76727;SDS011;65652;53.132;18.026;2023-06-14T06:46:52;8.20;;;3.10;;
76727;SDS011;65652;53.132;18.026;2023-06-14T06:49:19;9.50;;;3.60;;
76727;SDS011;65652;53.132;18.026;2023-06-14T06:51:58;11.20;;;3.80;;
76727;SDS011;65652;53.132;18.026;2023-06-14T06:54:27;8.10;;;3.80;;
76727;SDS011;65652;53.132;18.026;2023-06-14T06:56:54;9.70;;;3.60;;
76727;SDS011;65652;53.132;18.026;2023-06-14T06:59:21;8.50;;;3.90;;
76727;SDS011;65652;53.132;18.026;2023-06-14T07:01:48;11.00;;;4.30;;
76727;SDS011;65652;53.132;18.026;2023-06-14T07:04:15;11.10;;;3.70;;
76727;SDS011;65652;53.132;18.026;2023-06-14T07:06:42;7.40;;;3.80;;
76727;SDS011;65652;53.132;18.026;2023-06-14T07:09:10;9.60;;;4.10;;
76727;SDS011;65652;53.132;18.026;2023-06-14T07:11:42;9.90;;;3.60;;
76727;SDS011;65652;53.132;18.026;2023-06-14T07:14:09;7.50;;;3.70;;
76727;SDS011;65652;53.132;18.026;2023-06-14T07:16:37;11.50;;;3.80;;
76727;SDS011;65652;53.132;18.026;2023-06-14T07:19:04;9.90;;;4.40;;
76727;SDS011;65652;53.132;18.026;2023-06-14T07:21:31;9.00;;;3.60;;
76727;SDS011;65652;53.132;18.026;2023-06-14T07:23:58;8.80;;;3.60;;
76727;SDS011;65652;53.132;18.026;2023-06-14T07:26:25;9.40;;;3.70;;
76727;SDS011;65652;53.132;18.026;2023-06-14T07:28:52;12.10;;;4.30;;
76727;SDS011;65652;53.132;18.026;2023-06-14T07:31:19;10.30;;;3.70;;
76727;SDS011;65652;53.132;18.026;2023-06-14T07:33:46;8.10;;;3.40;;
76727;SDS011;65652;53.132;18.026;2023-06-14T07:36:13;8.60;;;3.20;;
76727;SDS011;65652;53.132;18.026;2023-06-14T07:38:40;7.60;;;3.30;;
76727;SDS011;65652;53.132;18.026;2023-06-14T07:41:07;8.90;;;3.50;;
76727;SDS011;65652;53.132;18.026;2023-06-14T07:43:34;7.90;;;3.80;;
76727;SDS011;65652;53.132;18.026;2023-06-14T07:46:01;7.30;;;3.60;;
76727;SDS011;65652;53.132;18.026;2023-06-14T07:48:28;7.80;;;2.70;;
76727;SDS011;65652;53.132;18.026;2023-06-14T07:50:55;8.30;;;3.40;;
76727;SDS011;65652;53.132;18.026;2023-06-14T07:53:22;8.20;;;3.50;;
76727;SDS011;65652;53.132;18.026;2023-06-14T07:55:49;9.70;;;3.80;;
76727;SDS011;65652;53.132;18.026;2023-06-14T07:58:17;9.20;;;3.70;;
76727;SDS011;65652;53.132;18.026;2023-06-14T08:00:43;8.20;;;3.40;;
76727;SDS011;65652;53.132;18.026;2023-06-14T08:03:10;9.40;;;3.90;;
76727;SDS011;65652;53.132;18.026;2023-06-14T08:05:38;7.50;;;3.30;;
76727;SDS011;65652;53.132;18.026;2023-06-14T08:08:05;9.70;;;4.00;;
76727;SDS011;65652;53.132;18.026;2023-06-14T08:10:31;7.90;;;3.50;;
76727;SDS011;65652;53.132;18.026;2023-06-14T08:12:58;10.80;;;4.40;;
76727;SDS011;65652;53.132;18.026;2023-06-14T08:15:25;9.00;;;3.50;;
76727;SDS011;65652;53.132;18.026;2023-06-14T08:17:52;9.30;;;3.80;;
76727;SDS011;65652;53.132;18.026;2023-06-14T08:20:19;10.90;;;4.20;;
76727;SDS011;65652;53.132;18.026;2023-06-14T08:22:46;8.50;;;3.50;;
76727;SDS011;65652;53.132;18.026;2023-06-14T08:25:14;11.40;;;4.60;;
76727;SDS011;65652;53.132;18.026;2023-06-14T08:27:41;10.30;;;3.90;;
76727;SDS011;65652;53.132;18.026;2023-06-14T08:30:08;12.00;;;4.30;;
76727;SDS011;65652;53.132;18.026;2023-06-14T08:32:36;8.00;;;3.80;;
76727;SDS011;65652;53.132;18.026;2023-06-14T08:35:03;6.80;;;3.20;;
76727;SDS011;65652;53.132;18.026;2023-06-14T08:37:32;9.20;;;3.80;;
76727;SDS011;65652;53.132;18.026;2023-06-14T08:40:02;9.50;;;3.30;;
76727;SDS011;65652;53.132;18.026;2023-06-14T08:42:32;8.90;;;3.20;;
76727;SDS011;65652;53.132;18.026;2023-06-14T08:44:59;9.40;;;3.70;;
76727;SDS011;65652;53.132;18.026;2023-06-14T08:47:26;7.70;;;3.40;;
76727;SDS011;65652;53.132;18.026;2023-06-14T08:49:55;6.70;;;3.40;;
76727;SDS011;65652;53.132;18.026;2023-06-14T08:52:24;10.80;;;4.00;;
76727;SDS011;65652;53.132;18.026;2023-06-14T08:54:56;9.00;;;3.90;;
76727;SDS011;65652;53.132;18.026;2023-06-14T08:57:24;7.90;;;3.90;;
76727;SDS011;65652;53.132;18.026;2023-06-14T08:59:51;10.30;;;4.20;;
76727;SDS011;65652;53.132;18.026;2023-06-14T09:02:20;9.40;;;4.30;;
76727;SDS011;65652;53.132;18.026;2023-06-14T09:04:48;9.30;;;4.30;;
76727;SDS011;65652;53.132;18.026;2023-06-14T09:07:18;8.70;;;4.00;;
76727;SDS011;65652;53.132;18.026;2023-06-14T09:09:45;8.10;;;3.70;;
76727;SDS011;65652;53.132;18.026;2023-06-14T09:12:12;7.50;;;3.60;;
76727;SDS011;65652;53.132;18.026;2023-06-14T09:14:39;8.00;;;3.50;;
76727;SDS011;65652;53.132;18.026;2023-06-14T09:17:08;9.10;;;3.40;;
76727;SDS011;65652;53.132;18.026;2023-06-14T09:19:35;6.30;;;3.20;;
76727;SDS011;65652;53.132;18.026;2023-06-14T09:22:03;6.20;;;3.10;;
76727;SDS011;65652;53.132;18.026;2023-06-14T09:24:30;10.20;;;4.00;;
76727;SDS011;65652;53.132;18.026;2023-06-14T09:26:57;10.60;;;4.10;;
76727;SDS011;65652;53.132;18.026;2023-06-14T09:29:24;7.80;;;3.40;;
76727;SDS011;65652;53.132;18.026;2023-06-14T09:31:53;9.30;;;3.90;;
76727;SDS011;65652;53.132;18.026;2023-06-14T09:34:20;7.80;;;3.20;;
76727;SDS011;65652;53.132;18.026;2023-06-14T09:36:49;9.20;;;3.80;;
76727;SDS011;65652;53.132;18.026;2023-06-14T09:41:44;9.00;;;3.60;;
76727;SDS011;65652;53.132;18.026;2023-06-14T09:44:11;7.20;;;3.40;;
76727;SDS011;65652;53.132;18.026;2023-06-14T09:46:41;6.20;;;3.10;;
76727;SDS011;65652;53.132;18.026;2023-06-14T09:49:08;10.80;;;3.60;;
76727;SDS011;65652;53.132;18.026;2023-06-14T09:51:36;8.50;;;3.50;;
76727;SDS011;65652;53.132;18.026;2023-06-14T09:54:12;8.80;;;3.30;;
76727;SDS011;65652;53.132;18.026;2023-06-14T09:56:48;10.30;;;3.20;;
76727;SDS011;65652;53.132;18.026;2023-06-14T09:59:21;8.10;;;3.20;;
76727;SDS011;65652;53.132;18.026;2023-06-14T10:01:57;7.60;;;3.40;;
76727;SDS011;65652;53.132;18.026;2023-06-14T10:04:27;9.10;;;4.20;;
76727;SDS011;65652;53.132;18.026;2023-06-14T10:06:57;11.00;;;4.40;;
76727;SDS011;65652;53.132;18.026;2023-06-14T10:09:26;8.40;;;3.70;;
76727;SDS011;65652;53.132;18.026;2023-06-14T10:11:53;8.50;;;3.80;;
76727;SDS011;65652;53.132;18.026;2023-06-14T10:14:20;9.20;;;3.90;;
76727;SDS011;65652;53.132;18.026;2023-06-14T10:16:57;9.50;;;3.70;;
76727;SDS011;65652;53.132;18.026;2023-06-14T10:19:42;7.30;;;3.30;;
76727;SDS011;65652;53.132;18.026;2023-06-14T10:22:23;7.50;;;3.30;;
76727;SDS011;65652;53.132;18.026;2023-06-14T10:24:56;7.90;;;3.70;;
76727;SDS011;65652;53.132;18.026;2023-06-14T10:27:22;7.60;;;3.50;;
76727;SDS011;65652;53.132;18.026;2023-06-14T10:32:23;7.60;;;3.90;;
76727;SDS011;65652;53.132;18.026;2023-06-14T10:34:59;8.90;;;4.20;;
76727;SDS011;65652;53.132;18.026;2023-06-14T10:37:27;9.50;;;3.60;;
76727;SDS011;65652;53.132;18.026;2023-06-14T10:39:54;8.90;;;3.50;;
76727;SDS011;65652;53.132;18.026;2023-06-14T10:42:21;7.80;;;3.50;;
76727;SDS011;65652;53.132;18.026;2023-06-14T10:44:55;7.60;;;3.20;;
76727;SDS011;65652;53.132;18.026;2023-06-14T10:49:54;6.70;;;3.50;;
76727;SDS011;65652;53.132;18.026;2023-06-14T10:52:23;8.90;;;4.00;;
76727;SDS011;65652;53.132;18.026;2023-06-14T10:57:39;11.20;;;4.10;;
76727;SDS011;65652;53.132;18.026;2023-06-14T11:00:13;7.30;;;3.40;;
76727;SDS011;65652;53.132;18.026;2023-06-14T11:02:46;7.90;;;3.90;;
76727;SDS011;65652;53.132;18.026;2023-06-14T11:05:14;8.80;;;3.30;;
76727;SDS011;65652;53.132;18.026;2023-06-14T11:07:48;8.70;;;3.60;;
76727;SDS011;65652;53.132;18.026;2023-06-14T11:10:32;9.60;;;4.00;;
76727;SDS011;65652;53.132;18.026;2023-06-14T11:13:09;7.50;;;3.80;;
76727;SDS011;65652;53.132;18.026;2023-06-14T11:15:36;7.30;;;4.10;;
76727;SDS011;65652;53.132;18.026;2023-06-14T11:18:07;9.60;;;4.30;;
76727;SDS011;65652;53.132;18.026;2023-06-14T11:20:39;7.60;;;4.10;;
76727;SDS011;65652;53.132;18.026;2023-06-14T11:23:06;9.40;;;3.90;;
76727;SDS011;65652;53.132;18.026;2023-06-14T11:25:33;9.60;;;3.50;;
76727;SDS011;65652;53.132;18.026;2023-06-14T11:28:00;5.80;;;2.90;;
76727;SDS011;65652;53.132;18.026;2023-06-14T11:30:27;6.50;;;2.90;;
76727;SDS011;65652;53.132;18.026;2023-06-14T11:32:54;6.30;;;2.70;;
76727;SDS011;65652;53.132;18.026;2023-06-14T11:35:22;7.90;;;3.00;;
76727;SDS011;65652;53.132;18.026;2023-06-14T11:37:56;7.10;;;2.90;;
76727;SDS011;65652;53.132;18.026;2023-06-14T11:40:24;9.90;;;2.90;;
76727;SDS011;65652;53.132;18.026;2023-06-14T11:42:58;7.20;;;2.90;;
76727;SDS011;65652;53.132;18.026;2023-06-14T11:45:27;6.00;;;2.80;;
76727;SDS011;65652;53.132;18.026;2023-06-14T11:50:23;6.60;;;3.10;;
76727;SDS011;65652;53.132;18.026;2023-06-14T11:52:53;6.90;;;3.20;;
76727;SDS011;65652;53.132;18.026;2023-06-14T11:55:22;8.70;;;3.00;;
76727;SDS011;65652;53.132;18.026;2023-06-14T11:57:49;6.60;;;3.00;;
76727;SDS011;65652;53.132;18.026;2023-06-14T12:00:17;6.60;;;3.30;;
76727;SDS011;65652;53.132;18.026;2023-06-14T12:02:52;8.30;;;3.10;;
76727;SDS011;65652;53.132;18.026;2023-06-14T12:05:23;7.50;;;3.30;;
76727;SDS011;65652;53.132;18.026;2023-06-14T12:07:50;7.90;;;3.20;;
76727;SDS011;65652;53.132;18.026;2023-06-14T12:10:26;7.30;;;3.20;;
76727;SDS011;65652;53.132;18.026;2023-06-14T12:12:57;8.70;;;3.40;;
76727;SDS011;65652;53.132;18.026;2023-06-14T12:15:28;9.40;;;3.70;;
76727;SDS011;65652;53.132;18.026;2023-06-14T12:17:58;8.30;;;3.80;;
76727;SDS011;65652;53.132;18.026;2023-06-14T12:20:29;7.20;;;3.40;;
76727;SDS011;65652;53.132;18.026;2023-06-14T12:23:02;7.80;;;3.50;;
76727;SDS011;65652;53.132;18.026;2023-06-14T12:25:33;9.50;;;3.50;;
76727;SDS011;65652;53.132;18.026;2023-06-14T12:28:06;8.40;;;3.60;;
76727;SDS011;65652;53.132;18.026;2023-06-14T12:30:36;7.10;;;3.30;;
76727;SDS011;65652;53.132;18.026;2023-06-14T12:33:04;7.80;;;3.30;;
76727;SDS011;65652;53.132;18.026;2023-06-14T12:35:32;7.40;;;3.60;;
76727;SDS011;65652;53.132;18.026;2023-06-14T12:37:58;7.10;;;3.30;;
76727;SDS011;65652;53.132;18.026;2023-06-14T12:40:25;7.20;;;3.10;;
76727;SDS011;65652;53.132;18.026;2023-06-14T12:42:53;7.70;;;2.90;;
76727;SDS011;65652;53.132;18.026;2023-06-14T12:45:19;7.20;;;3.30;;
76727;SDS011;65652;53.132;18.026;2023-06-14T12:47:46;7.20;;;2.30;;
76727;SDS011;65652;53.132;18.026;2023-06-14T12:50:13;6.10;;;2.80;;
76727;SDS011;65652;53.132;18.026;2023-06-14T12:52:40;7.50;;;3.10;;
76727;SDS011;65652;53.132;18.026;2023-06-14T12:55:07;8.80;;;3.20;;
76727;SDS011;65652;53.132;18.026;2023-06-14T12:57:34;7.60;;;3.70;;
76727;SDS011;65652;53.132;18.026;2023-06-14T13:00:03;7.20;;;4.00;;
76727;SDS011;65652;53.132;18.026;2023-06-14T13:02:32;7.80;;;3.80;;
76727;SDS011;65652;53.132;18.026;2023-06-14T13:04:59;9.50;;;4.10;;
76727;SDS011;65652;53.132;18.026;2023-06-14T13:07:26;9.70;;;4.70;;
76727;SDS011;65652;53.132;18.026;2023-06-14T13:09:53;10.00;;;4.60;;
76727;SDS011;65652;53.132;18.026;2023-06-14T13:12:20;8.40;;;4.10;;
76727;SDS011;65652;53.132;18.026;2023-06-14T13:14:47;8.00;;;3.30;;
76727;SDS011;65652;53.132;18.026;2023-06-14T13:17:14;6.90;;;3.50;;
76727;SDS011;65652;53.132;18.026;2023-06-14T13:19:41;7.70;;;3.90;;
76727;SDS011;65652;53.132;18.026;2023-06-14T13:22:08;8.60;;;3.70;;
76727;SDS011;65652;53.132;18.026;2023-06-14T13:24:36;9.60;;;4.20;;
76727;SDS011;65652;53.132;18.026;2023-06-14T13:27:03;10.10;;;4.10;;
76727;SDS011;65652;53.132;18.026;2023-06-14T13:29:30;7.90;;;4.20;;
76727;SDS011;65652;53.132;18.026;2023-06-14T13:31:57;7.60;;;3.80;;
76727;SDS011;65652;53.132;18.026;2023-06-14T13:34:24;9.20;;;3.60;;
76727;SDS011;65652;53.132;18.026;2023-06-14T13:36:51;6.20;;;3.20;;
76727;SDS011;65652;53.132;18.026;2023-06-14T13:39:18;7.90;;;3.40;;
76727;SDS011;65652;53.132;18.026;2023-06-14T13:41:44;7.60;;;3.50;;
76727;SDS011;65652;53.132;18.026;2023-06-14T13:44:11;9.70;;;4.00;;
76727;SDS011;65652;53.132;18.026;2023-06-14T13:46:41;6.90;;;3.50;;
76727;SDS011;65652;53.132;18.026;2023-06-14T13:49:09;8.80;;;4.00;;
76727;SDS011;65652;53.132;18.026;2023-06-14T13:51:37;9.30;;;3.80;;
76727;SDS011;65652;53.132;18.026;2023-06-14T13:54:04;7.60;;;3.50;;
76727;SDS011;65652;53.132;18.026;2023-06-14T13:56:31;7.20;;;3.70;;
76727;SDS011;65652;53.132;18.026;2023-06-14T13:58:58;9.70;;;4.10;;
76727;SDS011;65652;53.132;18.026;2023-06-14T14:01:25;7.90;;;4.00;;
76727;SDS011;65652;53.132;18.026;2023-06-14T14:03:53;7.30;;;4.10;;
76727;SDS011;65652;53.132;18.026;2023-06-14T14:06:19;8.40;;;3.90;;
76727;SDS011;65652;53.132;18.026;2023-06-14T14:08:47;8.00;;;3.90;;
76727;SDS011;65652;53.132;18.026;2023-06-14T14:11:13;9.60;;;4.40;;
76727;SDS011;65652;53.132;18.026;2023-06-14T14:13:42;9.80;;;4.10;;
76727;SDS011;65652;53.132;18.026;2023-06-14T14:16:09;8.30;;;4.30;;
76727;SDS011;65652;53.132;18.026;2023-06-14T14:18:37;9.80;;;4.00;;
76727;SDS011;65652;53.132;18.026;2023-06-14T14:21:04;9.90;;;4.40;;
76727;SDS011;65652;53.132;18.026;2023-06-14T14:23:31;8.00;;;4.10;;
76727;SDS011;65652;53.132;18.026;2023-06-14T14:25:58;9.00;;;4.50;;
76727;SDS011;65652;53.132;18.026;2023-06-14T14:28:27;8.30;;;4.30;;
76727;SDS011;65652;53.132;18.026;2023-06-14T14:33:21;6.90;;;4.10;;
76727;SDS011;65652;53.132;18.026;2023-06-14T14:35:48;6.70;;;3.80;;
76727;SDS011;65652;53.132;18.026;2023-06-14T14:38:15;8.90;;;3.80;;
76727;SDS011;65652;53.132;18.026;2023-06-14T14:40:43;8.40;;;4.00;;
76727;SDS011;65652;53.132;18.026;2023-06-14T14:45:37;10.00;;;3.80;;
76727;SDS011;65652;53.132;18.026;2023-06-14T14:48:05;12.70;;;5.20;;
76727;SDS011;65652;53.132;18.026;2023-06-14T14:50:32;7.60;;;3.30;;
76727;SDS011;65652;53.132;18.026;2023-06-14T14:53:00;7.00;;;3.10;;
76727;SDS011;65652;53.132;18.026;2023-06-14T14:55:27;8.90;;;3.30;;
76727;SDS011;65652;53.132;18.026;2023-06-14T14:57:54;6.10;;;2.70;;
76727;SDS011;65652;53.132;18.026;2023-06-14T15:00:21;8.60;;;2.90;;
76727;SDS011;65652;53.132;18.026;2023-06-14T15:02:48;7.60;;;2.70;;
76727;SDS011;65652;53.132;18.026;2023-06-14T15:05:15;6.00;;;2.30;;